createdAt,value
2017-06-21T00:01:15.844Z,43.68
2017-06-21T00:02:12.760Z,43.59
2017-06-21T00:03:12.903Z,43.4
2017-06-21T00:04:12.636Z,43.49
2017-06-21T00:05:12.276Z,43.59
2017-06-21T00:06:12.515Z,43.49
2017-06-21T00:07:12.153Z,43.2
2017-06-21T00:08:12.392Z,43.4
2017-06-21T00:09:12.329Z,43.3
2017-06-21T00:10:12.265Z,43.49
2017-06-21T00:11:12.480Z,43.49
2017-06-21T00:12:12.156Z,43.4
2017-06-21T00:13:12.079Z,43.3
2017-06-21T00:14:12.035Z,43.2
2017-06-21T00:15:11.984Z,43.4
2017-06-21T00:16:11.923Z,43.2
2017-06-21T00:17:11.832Z,43.4
2017-06-21T00:18:11.826Z,43.3
2017-06-21T00:19:11.709Z,43.4
2017-06-21T00:20:11.695Z,43.68
2017-06-21T00:21:11.616Z,43.4
2017-06-21T00:22:11.555Z,43.4
2017-06-21T00:23:11.466Z,43.4
2017-06-21T00:24:11.432Z,43.68
2017-06-21T00:25:11.357Z,43.59
2017-06-21T00:26:11.296Z,43.1
2017-06-21T00:27:11.223Z,43.2
2017-06-21T00:28:11.203Z,43.3
2017-06-21T00:29:11.141Z,43.01
2017-06-21T00:30:11.082Z,43.2
2017-06-21T00:31:11.220Z,43.01
2017-06-21T00:32:10.928Z,43.01
2017-06-21T00:33:10.874Z,43.2
2017-06-21T00:34:10.490Z,43.01
2017-06-21T00:35:10.729Z,43.01
2017-06-21T00:36:10.667Z,43.2
2017-06-21T00:37:10.754Z,43.1
2017-06-21T00:38:10.544Z,43.2
2017-06-21T00:39:10.488Z,43.1
2017-06-21T00:40:10.421Z,43.2
2017-06-21T00:41:10.357Z,43.2
2017-06-21T00:42:10.398Z,43.2
2017-06-21T00:43:10.234Z,43.1
2017-06-21T00:44:10.172Z,43.01
2017-06-21T00:45:10.114Z,43.49
2017-06-21T00:46:10.048Z,43.2
2017-06-21T00:47:09.989Z,43.1
2017-06-21T00:48:09.927Z,43.2
2017-06-21T00:49:09.865Z,43.68
2017-06-21T00:50:10.007Z,43.68
2017-06-21T00:51:09.741Z,43.98
2017-06-21T00:52:09.679Z,44.07
2017-06-21T00:53:09.616Z,44.15
2017-06-21T00:54:09.556Z,44.26
2017-06-21T00:55:09.493Z,43.68
2017-06-21T00:56:09.433Z,44.07
2017-06-21T00:57:09.375Z,44.46
2017-06-21T00:58:09.313Z,44.63
2017-06-21T00:59:09.246Z,44.36
2017-06-21T01:00:09.187Z,45.04
2017-06-21T01:01:17.723Z,44.94
2017-06-21T01:02:09.063Z,44.84
2017-06-21T01:03:09.004Z,44.65
2017-06-21T01:04:08.940Z,44.84
2017-06-21T01:05:08.878Z,44.65
2017-06-21T01:06:08.816Z,44.84
2017-06-21T01:07:08.756Z,44.84
2017-06-21T01:08:08.696Z,44.65
2017-06-21T01:09:08.334Z,44.46
2017-06-21T01:10:08.571Z,44.84
2017-06-21T01:11:08.551Z,44.56
2017-06-21T01:12:08.447Z,44.84
2017-06-21T01:13:08.635Z,44.56
2017-06-21T01:14:08.326Z,44.75
2017-06-21T01:15:08.262Z,45.01
2017-06-21T01:16:08.201Z,44.75
2017-06-21T01:17:08.139Z,44.82
2017-06-21T01:18:08.077Z,44.84
2017-06-21T01:19:08.016Z,44.53
2017-06-21T01:20:07.954Z,44.92
2017-06-21T01:21:07.907Z,44.82
2017-06-21T01:22:07.856Z,44.73
2017-06-21T01:23:07.770Z,44.63
2017-06-21T01:24:07.732Z,44.73
2017-06-21T01:25:07.671Z,44.82
2017-06-21T01:26:07.593Z,44.82
2017-06-21T01:27:07.524Z,44.43
2017-06-21T01:28:07.461Z,44.73
2017-06-21T01:29:07.410Z,44.82
2017-06-21T01:30:07.342Z,44.82
2017-06-21T01:31:07.291Z,44.82
2017-06-21T01:32:07.224Z,44.92
2017-06-21T01:33:07.163Z,45.01
2017-06-21T01:34:07.092Z,44.73
2017-06-21T01:35:07.046Z,44.82
2017-06-21T01:36:06.979Z,45.01
2017-06-21T01:37:06.908Z,45.01
2017-06-21T01:38:06.885Z,45.01
2017-06-21T01:39:06.793Z,45.11
2017-06-21T01:40:06.719Z,45.11
2017-06-21T01:41:06.673Z,45.5
2017-06-21T01:42:06.599Z,45.5
2017-06-21T01:43:06.560Z,45.5
2017-06-21T01:44:06.741Z,45.01
2017-06-21T01:45:06.424Z,45.4
2017-06-21T01:46:06.072Z,45.4
2017-06-21T01:47:06.299Z,45.4
2017-06-21T01:48:06.244Z,45.21
2017-06-21T01:49:06.283Z,45.21
2017-06-21T01:50:06.115Z,45.11
2017-06-21T01:51:06.168Z,45.01
2017-06-21T01:52:05.702Z,45.21
2017-06-21T01:53:05.936Z,45.01
2017-06-21T01:54:05.882Z,45.01
2017-06-21T01:55:05.807Z,45.21
2017-06-21T01:56:05.734Z,45.11
2017-06-21T01:57:05.672Z,45.21
2017-06-21T01:58:05.635Z,45.01
2017-06-21T01:59:05.563Z,45.11
2017-06-21T02:00:05.514Z,45.01
2017-06-21T02:01:05.436Z,45.5
2017-06-21T02:02:05.381Z,45.21
2017-06-21T02:03:05.313Z,45.31
2017-06-21T02:04:05.242Z,44.82
2017-06-21T02:05:04.888Z,44.82
2017-06-21T02:06:05.143Z,44.63
2017-06-21T02:07:05.066Z,44.82
2017-06-21T02:08:05.001Z,45.4
2017-06-21T02:09:04.940Z,45.4
2017-06-21T02:10:04.936Z,45.11
2017-06-21T02:11:04.826Z,45.21
2017-06-21T02:12:04.759Z,45.11
2017-06-21T02:13:04.712Z,45.11
2017-06-21T02:14:04.336Z,44.92
2017-06-21T02:15:04.923Z,45.5
2017-06-21T02:16:04.509Z,45.4
2017-06-21T02:17:04.442Z,45.21
2017-06-21T02:18:04.377Z,44.73
2017-06-21T02:19:04.313Z,44.82
2017-06-21T02:20:04.279Z,44.43
2017-06-21T02:21:04.207Z,44.73
2017-06-21T02:22:04.147Z,44.73
2017-06-21T02:23:04.101Z,44.73
2017-06-21T02:24:04.021Z,44.82
2017-06-21T02:25:04.243Z,44.53
2017-06-21T02:26:03.897Z,44.53
2017-06-21T02:27:03.854Z,44.82
2017-06-21T02:28:03.776Z,44.82
2017-06-21T02:29:03.708Z,44.43
2017-06-21T02:30:03.640Z,44.15
2017-06-21T02:31:03.590Z,44.15
2017-06-21T02:32:03.512Z,44.24
2017-06-21T02:33:03.460Z,44.34
2017-06-21T02:34:03.415Z,44.34
2017-06-21T02:35:03.354Z,44.34
2017-06-21T02:36:03.283Z,44.34
2017-06-21T02:37:03.241Z,43.85
2017-06-21T02:38:03.154Z,43.85
2017-06-21T02:39:03.078Z,43.85
2017-06-21T02:40:03.036Z,44.15
2017-06-21T02:41:02.970Z,44.15
2017-06-21T02:42:02.921Z,43.95
2017-06-21T02:43:02.832Z,44.15
2017-06-21T02:44:02.785Z,44.34
2017-06-21T02:45:02.710Z,43.95
2017-06-21T02:46:02.647Z,43.76
2017-06-21T02:47:02.610Z,44.05
2017-06-21T02:48:02.549Z,43.95
2017-06-21T02:49:02.476Z,43.85
2017-06-21T02:50:02.417Z,44.15
2017-06-21T02:51:02.339Z,44.15
2017-06-21T02:52:02.291Z,44.05
2017-06-21T02:53:02.225Z,43.85
2017-06-21T02:54:02.168Z,44.15
2017-06-21T02:55:02.109Z,44.34
2017-06-21T02:56:02.690Z,43.66
2017-06-21T02:57:01.984Z,43.66
2017-06-21T02:58:01.910Z,44.05
2017-06-21T02:59:01.857Z,43.95
2017-06-21T03:00:01.797Z,44.24
2017-06-21T03:01:01.745Z,44.15
2017-06-21T03:02:01.657Z,44.24
2017-06-21T03:03:01.612Z,44.05
2017-06-21T03:04:01.551Z,43.95
2017-06-21T03:05:01.488Z,43.57
2017-06-21T03:06:01.132Z,43.66
2017-06-21T03:07:01.364Z,43.28
2017-06-21T03:08:01.296Z,43.66
2017-06-21T03:09:01.228Z,43.18
2017-06-21T03:10:01.163Z,43.28
2017-06-21T03:11:01.102Z,43.37
2017-06-21T03:12:01.052Z,43.18
2017-06-21T03:13:00.989Z,43.47
2017-06-21T03:14:00.916Z,43.18
2017-06-21T03:15:00.865Z,43.47
2017-06-21T03:16:00.809Z,43.37
2017-06-21T03:17:00.457Z,43.18
2017-06-21T03:18:00.684Z,43.66
2017-06-21T03:19:00.625Z,42.89
2017-06-21T03:20:00.546Z,42.79
2017-06-21T03:21:00.499Z,43.18
2017-06-21T03:22:00.139Z,43.18
2017-06-21T03:23:00.377Z,43.18
2017-06-21T03:24:00.317Z,43.18
2017-06-21T03:25:00.334Z,43.28
2017-06-21T03:25:59.902Z,43.18
2017-06-21T03:27:00.140Z,43.37
2017-06-21T03:28:00.062Z,42.99
2017-06-21T03:28:59.993Z,42.89
2017-06-21T03:29:59.929Z,43.18
2017-06-21T03:30:59.869Z,43.18
2017-06-21T03:31:59.829Z,43.18
2017-06-21T03:32:59.741Z,43.08
2017-06-21T03:33:59.690Z,43.18
2017-06-21T03:34:59.633Z,43.08
2017-06-21T03:35:59.556Z,43.08
2017-06-21T03:36:59.496Z,43.08
2017-06-21T03:37:59.458Z,43.18
2017-06-21T03:38:59.083Z,43.08
2017-06-21T03:39:59.323Z,42.99
2017-06-21T03:40:58.967Z,43.08
2017-06-21T03:41:59.213Z,42.79
2017-06-21T03:42:59.125Z,42.79
2017-06-21T03:43:59.077Z,42.89
2017-06-21T03:44:59.044Z,42.79
2017-06-21T03:45:58.939Z,42.89
2017-06-21T03:46:58.875Z,42.79
2017-06-21T03:47:58.815Z,42.79
2017-06-21T03:48:58.769Z,42.7
2017-06-21T03:49:58.700Z,42.89
2017-06-21T03:50:58.637Z,42.89
2017-06-21T03:51:58.565Z,42.89
2017-06-21T03:52:58.513Z,42.89
2017-06-21T03:53:58.457Z,42.79
2017-06-21T03:54:58.379Z,42.89
2017-06-21T03:55:58.319Z,42.89
2017-06-21T03:56:58.271Z,42.89
2017-06-21T03:57:58.204Z,42.6
2017-06-21T03:58:58.131Z,42.6
2017-06-21T03:59:58.096Z,42.79
2017-06-21T04:00:58.009Z,42.89
2017-06-21T04:01:57.957Z,42.7
2017-06-21T04:02:57.884Z,42.7
2017-06-21T04:03:57.838Z,42.89
2017-06-21T04:04:57.760Z,42.7
2017-06-21T04:05:57.711Z,43.28
2017-06-21T04:06:57.664Z,43.37
2017-06-21T04:07:57.581Z,43.66
2017-06-21T04:08:57.522Z,43.57
2017-06-21T04:09:57.476Z,43.37
2017-06-21T04:10:57.522Z,43.18
2017-06-21T04:11:57.338Z,43.08
2017-06-21T04:12:57.280Z,42.99
2017-06-21T04:13:57.214Z,43.18
2017-06-21T04:14:57.143Z,42.99
2017-06-21T04:15:56.779Z,43.08
2017-06-21T04:16:56.740Z,43.08
2017-06-21T04:17:56.958Z,42.99
2017-06-21T04:18:56.899Z,43.18
2017-06-21T04:19:56.832Z,43.18
2017-06-21T04:20:56.786Z,43.18
2017-06-21T04:21:56.707Z,43.08
2017-06-21T04:22:56.710Z,43.18
2017-06-21T04:23:56.599Z,43.28
2017-06-21T04:24:56.523Z,42.89
2017-06-21T04:25:56.486Z,42.99
2017-06-21T04:26:56.423Z,43.08
2017-06-21T04:27:56.361Z,43.18
2017-06-21T04:28:56.285Z,43.08
2017-06-21T04:29:56.227Z,43.18
2017-06-21T04:30:56.150Z,43.18
2017-06-21T04:31:56.088Z,43.28
2017-06-21T04:32:56.055Z,43.08
2017-06-21T04:33:55.991Z,43.37
2017-06-21T04:34:55.615Z,43.18
2017-06-21T04:35:55.553Z,43.37
2017-06-21T04:36:55.501Z,43.37
2017-06-21T04:37:55.732Z,43.47
2017-06-21T04:38:55.381Z,43.08
2017-06-21T04:39:55.603Z,43.57
2017-06-21T04:40:55.541Z,43.47
2017-06-21T04:41:55.480Z,43.47
2017-06-21T04:42:55.418Z,43.28
2017-06-21T04:43:55.350Z,43.57
2017-06-21T04:44:55.296Z,43.47
2017-06-21T04:45:55.549Z,43.57
2017-06-21T04:46:55.162Z,43.18
2017-06-21T04:47:55.110Z,43.57
2017-06-21T04:48:55.039Z,43.37
2017-06-21T04:49:55.001Z,43.47
2017-06-21T04:50:55.080Z,43.57
2017-06-21T04:51:54.984Z,43.28
2017-06-21T04:52:54.790Z,43.47
2017-06-21T04:53:54.731Z,43.57
2017-06-21T04:54:54.691Z,42.99
2017-06-21T04:55:54.653Z,43.37
2017-06-21T04:56:54.558Z,42.99
2017-06-21T04:57:54.481Z,43.57
2017-06-21T04:58:54.423Z,43.28
2017-06-21T04:59:54.383Z,43.37
2017-06-21T05:00:54.363Z,43.57
2017-06-21T05:01:59.707Z,42.89
2017-06-21T05:02:54.182Z,42.99
2017-06-21T05:03:54.120Z,43.57
2017-06-21T05:04:54.053Z,43.47
2017-06-21T05:05:54.011Z,43.18
2017-06-21T05:06:53.948Z,43.57
2017-06-21T05:07:53.871Z,43.47
2017-06-21T05:08:53.810Z,43.08
2017-06-21T05:09:53.745Z,42.89
2017-06-21T05:10:53.379Z,43.08
2017-06-21T05:11:53.626Z,43.47
2017-06-21T05:12:53.578Z,43.47
2017-06-21T05:13:53.490Z,43.47
2017-06-21T05:14:53.429Z,42.99
2017-06-21T05:15:53.396Z,42.99
2017-06-21T05:16:53.305Z,43.47
2017-06-21T05:17:53.257Z,43.37
2017-06-21T05:18:53.197Z,43.37
2017-06-21T05:19:53.128Z,43.47
2017-06-21T05:20:53.075Z,43.37
2017-06-21T05:21:53.029Z,43.66
2017-06-21T05:22:52.959Z,43.66
2017-06-21T05:23:52.882Z,43.47
2017-06-21T05:24:52.839Z,43.47
2017-06-21T05:25:52.748Z,43.37
2017-06-21T05:26:52.702Z,43.66
2017-06-21T05:27:52.641Z,43.37
2017-06-21T05:28:52.577Z,43.66
2017-06-21T05:29:52.510Z,43.66
2017-06-21T05:30:52.160Z,43.66
2017-06-21T05:31:52.393Z,43.47
2017-06-21T05:32:52.314Z,43.47
2017-06-21T05:33:52.281Z,43.66
2017-06-21T05:34:52.216Z,43.28
2017-06-21T05:35:52.154Z,43.66
2017-06-21T05:36:52.094Z,43.66
2017-06-21T05:37:52.006Z,43.47
2017-06-21T05:38:51.967Z,43.66
2017-06-21T05:39:51.880Z,43.37
2017-06-21T05:40:51.831Z,43.66
2017-06-21T05:41:51.783Z,43.37
2017-06-21T05:42:51.710Z,43.37
2017-06-21T05:43:51.648Z,43.37
2017-06-21T05:44:51.596Z,43.66
2017-06-21T05:45:51.538Z,43.66
2017-06-21T05:46:51.469Z,43.66
2017-06-21T05:47:51.413Z,43.37
2017-06-21T05:48:51.339Z,43.66
2017-06-21T05:49:51.278Z,43.47
2017-06-21T05:50:51.228Z,43.47
2017-06-21T05:51:51.138Z,43.66
2017-06-21T05:52:51.089Z,43.28
2017-06-21T05:53:51.030Z,43.66
2017-06-21T05:54:50.977Z,43.18
2017-06-21T05:55:50.899Z,43.18
2017-06-21T05:56:50.848Z,43.18
2017-06-21T05:57:50.467Z,43.18
2017-06-21T05:58:50.715Z,42.99
2017-06-21T05:59:50.653Z,42.99
2017-06-21T06:00:50.712Z,43.08
2017-06-21T06:01:50.528Z,43.08
2017-06-21T06:02:50.465Z,43.28
2017-06-21T06:03:50.419Z,43.18
2017-06-21T06:04:50.355Z,43.18
2017-06-21T06:05:50.651Z,43.08
2017-06-21T06:06:50.234Z,43.18
2017-06-21T06:07:50.163Z,43.08
2017-06-21T06:08:50.109Z,42.79
2017-06-21T06:09:50.037Z,43.18
2017-06-21T06:10:49.968Z,42.99
2017-06-21T06:11:49.913Z,43.18
2017-06-21T06:12:49.862Z,43.18
2017-06-21T06:13:49.801Z,42.79
2017-06-21T06:14:49.740Z,43.08
2017-06-21T06:15:49.677Z,42.89
2017-06-21T06:16:49.614Z,42.79
2017-06-21T06:17:49.535Z,42.6
2017-06-21T06:18:49.476Z,42.7
2017-06-21T06:19:49.418Z,42.89
2017-06-21T06:20:49.352Z,42.41
2017-06-21T06:21:49.291Z,42.7
2017-06-21T06:22:49.230Z,42.5
2017-06-21T06:23:49.168Z,42.79
2017-06-21T06:24:49.103Z,42.79
2017-06-21T06:25:49.043Z,42.7
2017-06-21T06:26:48.986Z,42.89
2017-06-21T06:27:48.923Z,42.7
2017-06-21T06:28:48.847Z,42.41
2017-06-21T06:29:48.808Z,42.41
2017-06-21T06:30:48.722Z,42.41
2017-06-21T06:31:48.700Z,42.6
2017-06-21T06:32:48.597Z,42.6
2017-06-21T06:33:48.545Z,42.41
2017-06-21T06:34:48.499Z,42.41
2017-06-21T06:35:48.411Z,42.41
2017-06-21T06:36:48.350Z,42.41
2017-06-21T06:37:48.299Z,42.7
2017-06-21T06:38:48.249Z,42.6
2017-06-21T06:39:48.165Z,42.7
2017-06-21T06:40:48.119Z,42.21
2017-06-21T06:41:48.039Z,42.12
2017-06-21T06:42:47.988Z,41.83
2017-06-21T06:43:47.931Z,41.93
2017-06-21T06:44:47.880Z,41.93
2017-06-21T06:45:47.808Z,42.31
2017-06-21T06:46:47.733Z,41.83
2017-06-21T06:47:47.378Z,42.02
2017-06-21T06:48:47.615Z,42.02
2017-06-21T06:49:47.571Z,42.12
2017-06-21T06:50:47.482Z,42.21
2017-06-21T06:51:47.134Z,42.12
2017-06-21T06:52:47.372Z,42.02
2017-06-21T06:53:47.319Z,42.41
2017-06-21T06:54:47.265Z,42.02
2017-06-21T06:55:47.201Z,42.12
2017-06-21T06:56:47.135Z,42.41
2017-06-21T06:57:47.074Z,42.12
2017-06-21T06:58:47.005Z,42.02
2017-06-21T06:59:46.942Z,41.83
2017-06-21T07:00:46.940Z,41.83
2017-06-21T07:01:46.826Z,41.93
2017-06-21T07:02:46.459Z,42.02
2017-06-21T07:03:46.374Z,41.83
2017-06-21T07:04:46.614Z,41.93
2017-06-21T07:05:46.561Z,41.83
2017-06-21T07:06:46.507Z,41.93
2017-06-21T07:07:46.443Z,41.93
2017-06-21T07:08:46.390Z,41.73
2017-06-21T07:09:46.321Z,41.83
2017-06-21T07:10:46.267Z,41.93
2017-06-21T07:11:46.198Z,41.81
2017-06-21T07:12:45.822Z,41.93
2017-06-21T07:13:46.056Z,41.81
2017-06-21T07:14:45.993Z,41.71
2017-06-21T07:15:45.955Z,41.83
2017-06-21T07:16:45.879Z,41.52
2017-06-21T07:17:45.808Z,41.61
2017-06-21T07:18:45.759Z,42
2017-06-21T07:19:45.385Z,41.71
2017-06-21T07:20:45.621Z,41.91
2017-06-21T07:21:45.577Z,41.61
2017-06-21T07:22:45.512Z,41.91
2017-06-21T07:23:45.460Z,41.91
2017-06-21T07:24:45.374Z,41.42
2017-06-21T07:25:45.326Z,41.44
2017-06-21T07:26:45.259Z,41.63
2017-06-21T07:27:45.196Z,41.83
2017-06-21T07:28:44.835Z,41.73
2017-06-21T07:29:44.772Z,41.63
2017-06-21T07:30:45.025Z,41.93
2017-06-21T07:31:44.951Z,41.54
2017-06-21T07:32:44.877Z,41.63
2017-06-21T07:33:44.830Z,41.54
2017-06-21T07:34:44.777Z,41.54
2017-06-21T07:35:44.744Z,41.44
2017-06-21T07:36:44.338Z,41.44
2017-06-21T07:37:44.608Z,41.63
2017-06-21T07:38:44.519Z,42.02
2017-06-21T07:39:44.529Z,41.93
2017-06-21T07:40:44.379Z,42.02
2017-06-21T07:41:44.040Z,41.44
2017-06-21T07:42:44.282Z,41.44
2017-06-21T07:43:44.211Z,41.35
2017-06-21T07:44:44.158Z,41.63
2017-06-21T07:45:44.080Z,41.73
2017-06-21T07:46:44.008Z,41.93
2017-06-21T07:47:43.952Z,42.12
2017-06-21T07:48:43.614Z,41.63
2017-06-21T07:49:43.862Z,42.21
2017-06-21T07:50:43.762Z,41.93
2017-06-21T07:51:43.720Z,41.73
2017-06-21T07:52:43.661Z,42.02
2017-06-21T07:53:43.587Z,42.02
2017-06-21T07:54:43.517Z,42.02
2017-06-21T07:55:43.466Z,42.12
2017-06-21T07:56:43.401Z,42.6
2017-06-21T07:57:43.355Z,43.66
2017-06-21T07:58:43.279Z,42.89
2017-06-21T07:59:43.231Z,43.47
2017-06-21T08:00:43.778Z,43.18
2017-06-21T08:01:43.083Z,43.28
2017-06-21T08:02:43.019Z,43.37
2017-06-21T08:03:42.974Z,43.47
2017-06-21T08:04:42.606Z,43.57
2017-06-21T08:05:42.833Z,43.47
2017-06-21T08:06:42.770Z,43.85
2017-06-21T08:07:42.710Z,44.24
2017-06-21T08:08:42.657Z,43.85
2017-06-21T08:09:42.588Z,43.95
2017-06-21T08:10:42.550Z,43.76
2017-06-21T08:11:42.473Z,43.47
2017-06-21T08:12:42.120Z,43.28
2017-06-21T08:13:42.058Z,43.18
2017-06-21T08:14:42.291Z,42.5
2017-06-21T08:15:41.917Z,42.6
2017-06-21T08:16:42.237Z,42.5
2017-06-21T08:17:41.802Z,42.41
2017-06-21T08:18:41.738Z,42.5
2017-06-21T08:19:41.676Z,42.7
2017-06-21T08:20:41.603Z,42.5
2017-06-21T08:21:41.844Z,42.6
2017-06-21T08:22:41.812Z,41.93
2017-06-21T08:23:41.735Z,42.6
2017-06-21T08:24:41.656Z,41.44
2017-06-21T08:25:41.609Z,41.63
2017-06-21T08:26:41.550Z,41.25
2017-06-21T08:27:41.496Z,41.35
2017-06-21T08:28:41.134Z,41.73
2017-06-21T08:29:41.054Z,41.15
2017-06-21T08:30:41.306Z,41.15
2017-06-21T08:31:41.253Z,41.05
2017-06-21T08:32:41.186Z,40.57
2017-06-21T08:33:41.125Z,41.25
2017-06-21T08:34:41.038Z,41.15
2017-06-21T08:35:40.991Z,41.05
2017-06-21T08:36:40.913Z,40.96
2017-06-21T08:37:40.881Z,41.15
2017-06-21T08:38:40.501Z,41.15
2017-06-21T08:39:40.727Z,41.35
2017-06-21T08:40:40.696Z,41.15
2017-06-21T08:41:40.605Z,40.86
2017-06-21T08:42:40.242Z,40.47
2017-06-21T08:43:40.182Z,40.38
2017-06-21T08:44:40.436Z,40.28
2017-06-21T08:45:40.069Z,40.28
2017-06-21T08:46:40.006Z,40.19
2017-06-21T08:47:40.233Z,40.28
2017-06-21T08:48:40.181Z,40.28
2017-06-21T08:49:40.121Z,40.19
2017-06-21T08:50:40.062Z,40.47
2017-06-21T08:51:39.987Z,40.47
2017-06-21T08:52:39.949Z,40.19
2017-06-21T08:53:39.878Z,39.99
2017-06-21T08:54:39.810Z,40.57
2017-06-21T08:55:39.748Z,40.19
2017-06-21T08:56:39.679Z,40.19
2017-06-21T08:57:39.623Z,40.77
2017-06-21T08:58:39.577Z,40.57
2017-06-21T08:59:39.491Z,40.09
2017-06-21T09:00:39.442Z,40.38
2017-06-21T09:01:39.392Z,40.19
2017-06-21T09:02:39.304Z,40.47
2017-06-21T09:03:39.247Z,40.47
2017-06-21T09:04:39.209Z,39.9
2017-06-21T09:05:39.121Z,39.99
2017-06-21T09:06:39.067Z,40.19
2017-06-21T09:07:39.023Z,40.09
2017-06-21T09:08:38.932Z,40.19
2017-06-21T09:09:38.900Z,39.99
2017-06-21T09:10:38.827Z,39.99
2017-06-21T09:11:38.772Z,39.9
2017-06-21T09:12:38.684Z,39.8
2017-06-21T09:13:38.346Z,40.09
2017-06-21T09:14:38.588Z,40.19
2017-06-21T09:15:38.510Z,40.57
2017-06-21T09:16:38.439Z,40.19
2017-06-21T09:17:38.401Z,39.9
2017-06-21T09:18:38.331Z,40.09
2017-06-21T09:19:38.269Z,40.09
2017-06-21T09:20:38.204Z,40.28
2017-06-21T09:21:38.130Z,39.99
2017-06-21T09:22:38.077Z,39.61
2017-06-21T09:23:38.021Z,39.51
2017-06-21T09:24:37.653Z,39.41
2017-06-21T09:25:37.894Z,39.7
2017-06-21T09:26:37.836Z,39.32
2017-06-21T09:27:37.767Z,39.41
2017-06-21T09:28:37.697Z,39.61
2017-06-21T09:29:37.346Z,39.61
2017-06-21T09:30:37.571Z,39.7
2017-06-21T09:31:37.526Z,39.51
2017-06-21T09:32:37.464Z,39.03
2017-06-21T09:33:37.394Z,39.03
2017-06-21T09:34:37.336Z,39.12
2017-06-21T09:35:37.272Z,39.22
2017-06-21T09:36:37.220Z,39.32
2017-06-21T09:37:37.162Z,39.32
2017-06-21T09:38:37.103Z,38.83
2017-06-21T09:39:37.015Z,38.54
2017-06-21T09:40:36.960Z,38.74
2017-06-21T09:41:36.916Z,38.54
2017-06-21T09:42:36.843Z,38.54
2017-06-21T09:43:36.792Z,38.16
2017-06-21T09:44:36.719Z,38.25
2017-06-21T09:45:36.668Z,38.25
2017-06-21T09:46:36.605Z,38.35
2017-06-21T09:47:36.530Z,38.16
2017-06-21T09:48:36.481Z,38.25
2017-06-21T09:49:36.400Z,38.16
2017-06-21T09:50:36.332Z,38.45
2017-06-21T09:51:36.271Z,38.35
2017-06-21T09:52:36.210Z,38.35
2017-06-21T09:53:36.177Z,38.06
2017-06-21T09:54:36.109Z,38.16
2017-06-21T09:55:36.039Z,38.25
2017-06-21T09:56:35.964Z,38.35
2017-06-21T09:57:35.926Z,38.06
2017-06-21T09:58:35.840Z,38.06
2017-06-21T09:59:35.800Z,37.96
2017-06-21T10:00:35.730Z,37.87
2017-06-21T10:01:35.668Z,37.87
2017-06-21T10:02:43.512Z,37.96
2017-06-21T10:03:35.559Z,37.58
2017-06-21T10:04:35.494Z,37.48
2017-06-21T10:05:35.432Z,37.67
2017-06-21T10:06:35.357Z,37.58
2017-06-21T10:07:35.349Z,37.29
2017-06-21T10:08:35.217Z,37.38
2017-06-21T10:09:35.181Z,37.19
2017-06-21T10:10:35.103Z,37.38
2017-06-21T10:11:35.048Z,37.48
2017-06-21T10:12:34.983Z,37.48
2017-06-21T10:13:34.912Z,37.67
2017-06-21T10:14:34.878Z,37.77
2017-06-21T10:15:34.799Z,37.29
2017-06-21T10:16:34.748Z,37.67
2017-06-21T10:17:34.685Z,37.29
2017-06-21T10:18:34.616Z,37.48
2017-06-21T10:19:34.560Z,37.38
2017-06-21T10:20:34.492Z,37.29
2017-06-21T10:21:34.411Z,37.48
2017-06-21T10:22:34.378Z,37.19
2017-06-21T10:23:34.009Z,37.1
2017-06-21T10:24:34.258Z,37.48
2017-06-21T10:25:34.164Z,37.19
2017-06-21T10:26:34.117Z,37.29
2017-06-21T10:27:34.058Z,37.38
2017-06-21T10:28:34.004Z,37.29
2017-06-21T10:29:33.932Z,37.38
2017-06-21T10:30:33.856Z,37.38
2017-06-21T10:31:34.006Z,37.48
2017-06-21T10:32:33.730Z,37.19
2017-06-21T10:33:33.695Z,37.38
2017-06-21T10:34:33.617Z,37.48
2017-06-21T10:35:33.556Z,37.67
2017-06-21T10:36:33.511Z,37
2017-06-21T10:37:33.166Z,37.38
2017-06-21T10:38:33.376Z,37.38
2017-06-21T10:39:33.308Z,37.38
2017-06-21T10:40:33.443Z,37.29
2017-06-21T10:41:33.188Z,37.48
2017-06-21T10:42:33.122Z,37.29
2017-06-21T10:43:33.064Z,37.1
2017-06-21T10:44:32.998Z,37
2017-06-21T10:45:32.950Z,37.19
2017-06-21T10:46:32.592Z,37.19
2017-06-21T10:47:32.833Z,37.29
2017-06-21T10:48:32.761Z,37.29
2017-06-21T10:49:32.843Z,37
2017-06-21T10:50:32.337Z,37.1
2017-06-21T10:51:32.580Z,36.9
2017-06-21T10:52:32.516Z,36.42
2017-06-21T10:53:32.161Z,36.42
2017-06-21T10:54:32.783Z,36.32
2017-06-21T10:55:32.317Z,36.32
2017-06-21T10:56:32.261Z,36.03
2017-06-21T10:57:32.193Z,36.22
2017-06-21T10:58:32.138Z,35.94
2017-06-21T10:59:32.072Z,35.94
2017-06-21T11:00:31.707Z,36.03
2017-06-21T11:01:31.944Z,35.84
2017-06-21T11:02:31.873Z,35.94
2017-06-21T11:03:32.039Z,35.74
2017-06-21T11:04:31.750Z,35.84
2017-06-21T11:05:31.702Z,35.84
2017-06-21T11:06:31.656Z,35.94
2017-06-21T11:07:31.565Z,35.94
2017-06-21T11:08:31.503Z,35.64
2017-06-21T11:09:31.672Z,35.94
2017-06-21T11:10:31.382Z,36.03
2017-06-21T11:11:31.327Z,35.94
2017-06-21T11:12:31.252Z,35.64
2017-06-21T11:13:31.265Z,35.84
2017-06-21T11:14:31.130Z,35.74
2017-06-21T11:15:31.299Z,35.74
2017-06-21T11:16:30.706Z,35.64
2017-06-21T11:17:30.659Z,35.74
2017-06-21T11:18:30.894Z,35.74
2017-06-21T11:19:30.540Z,35.74
2017-06-21T11:20:31.018Z,35.36
2017-06-21T11:21:30.704Z,35.55
2017-06-21T11:22:30.664Z,35.45
2017-06-21T11:23:30.582Z,35.45
2017-06-21T11:24:30.529Z,35.55
2017-06-21T11:25:30.455Z,35.64
2017-06-21T11:26:30.416Z,35.55
2017-06-21T11:27:30.039Z,34.87
2017-06-21T11:28:30.279Z,34.78
2017-06-21T11:29:30.201Z,34.68
2017-06-21T11:30:30.150Z,34.68
2017-06-21T11:31:30.092Z,34.68
2017-06-21T11:32:30.030Z,34.78
2017-06-21T11:33:29.968Z,34.68
2017-06-21T11:34:29.909Z,34.48
2017-06-21T11:35:29.846Z,34.97
2017-06-21T11:36:29.770Z,34
2017-06-21T11:37:29.731Z,34.1
2017-06-21T11:38:29.670Z,34.2
2017-06-21T11:39:29.581Z,34.29
2017-06-21T11:40:29.537Z,34.39
2017-06-21T11:41:29.487Z,34.68
2017-06-21T11:42:29.424Z,34
2017-06-21T11:43:29.335Z,34.58
2017-06-21T11:44:29.297Z,34.87
2017-06-21T11:45:29.234Z,34.2
2017-06-21T11:46:29.149Z,34.2
2017-06-21T11:47:29.093Z,34.78
2017-06-21T11:48:29.044Z,34.1
2017-06-21T11:49:28.990Z,34.29
2017-06-21T11:50:28.917Z,34.39
2017-06-21T11:51:28.865Z,34.48
2017-06-21T11:52:28.783Z,34.1
2017-06-21T11:53:28.725Z,34.39
2017-06-21T11:54:28.664Z,34.39
2017-06-21T11:55:28.304Z,34.48
2017-06-21T11:56:28.533Z,34.29
2017-06-21T11:57:28.469Z,34.48
2017-06-21T11:58:28.129Z,34.58
2017-06-21T11:59:28.052Z,34.2
2017-06-21T12:00:28.005Z,34.2
2017-06-21T12:01:28.248Z,34.1
2017-06-21T12:02:27.856Z,34.29
2017-06-21T12:03:28.103Z,33.42
2017-06-21T12:04:27.789Z,33.91
2017-06-21T12:05:27.988Z,34.29
2017-06-21T12:06:27.931Z,34.78
2017-06-21T12:07:27.569Z,35.45
2017-06-21T12:08:27.514Z,36.03
2017-06-21T12:09:27.739Z,36.24
2017-06-21T12:10:27.676Z,36.34
2017-06-21T12:11:27.604Z,37.02
2017-06-21T12:12:27.551Z,37.21
2017-06-21T12:13:27.193Z,37.21
2017-06-21T12:14:27.122Z,37.6
2017-06-21T12:15:27.062Z,37.5
2017-06-21T12:16:27.012Z,37.6
2017-06-21T12:17:27.257Z,37.79
2017-06-21T12:18:27.184Z,37.88
2017-06-21T12:19:26.819Z,38.08
2017-06-21T12:20:27.059Z,38.46
2017-06-21T12:21:26.998Z,38.56
2017-06-21T12:22:26.946Z,38.66
2017-06-21T12:23:26.582Z,38.66
2017-06-21T12:24:26.795Z,38.56
2017-06-21T12:25:26.744Z,39.04
2017-06-21T12:26:26.374Z,38.85
2017-06-21T12:27:26.611Z,39.24
2017-06-21T12:28:26.558Z,39.43
2017-06-21T12:29:26.198Z,39.53
2017-06-21T12:30:26.134Z,39.53
2017-06-21T12:31:26.368Z,39.43
2017-06-21T12:32:26.310Z,39.62
2017-06-21T12:33:26.248Z,40.4
2017-06-21T12:34:26.200Z,40.4
2017-06-21T12:35:26.127Z,40.59
2017-06-21T12:36:26.086Z,40.5
2017-06-21T12:37:26.031Z,40.3
2017-06-21T12:38:25.947Z,40.13
2017-06-21T12:39:25.594Z,40.5
2017-06-21T12:40:25.835Z,40.32
2017-06-21T12:41:25.749Z,40.03
2017-06-21T12:42:25.697Z,40.5
2017-06-21T12:43:25.651Z,40.32
2017-06-21T12:44:25.270Z,40.23
2017-06-21T12:45:25.211Z,40.9
2017-06-21T12:46:25.144Z,40.81
2017-06-21T12:47:25.380Z,40.81
2017-06-21T12:48:25.340Z,40.71
2017-06-21T12:49:25.256Z,40.71
2017-06-21T12:50:25.200Z,41.39
2017-06-21T12:51:25.131Z,41.19
2017-06-21T12:52:24.782Z,40.9
2017-06-21T12:53:25.075Z,40.71
2017-06-21T12:54:24.974Z,40.9
2017-06-21T12:55:24.887Z,41.19
2017-06-21T12:56:24.826Z,41.19